sensor_id;sensor_type;location;lat;lon;timestamp;P1;durP1;ratioP1;P2;durP2;ratioP2
44486;SDS011;30191;50.908;6.962;2024-01-30T00:00:44;10.38;;;7.57;;
44486;SDS011;30191;50.908;6.962;2024-01-30T00:03:09;9.50;;;7.50;;
44486;SDS011;30191;50.908;6.962;2024-01-30T00:05:35;10.27;;;7.63;;
44486;SDS011;30191;50.908;6.962;2024-01-30T00:08:01;9.15;;;7.72;;
44486;SDS011;30191;50.908;6.962;2024-01-30T00:10:26;12.23;;;7.90;;
44486;SDS011;30191;50.908;6.962;2024-01-30T00:12:52;13.20;;;7.60;;
44486;SDS011;30191;50.908;6.962;2024-01-30T00:15:17;10.50;;;7.47;;
44486;SDS011;30191;50.908;6.962;2024-01-30T00:17:43;9.52;;;7.60;;
44486;SDS011;30191;50.908;6.962;2024-01-30T00:20:09;9.70;;;7.60;;
44486;SDS011;30191;50.908;6.962;2024-01-30T00:22:35;10.05;;;7.90;;
44486;SDS011;30191;50.908;6.962;2024-01-30T00:25:00;11.27;;;7.85;;
44486;SDS011;30191;50.908;6.962;2024-01-30T00:27:26;11.60;;;8.00;;
44486;SDS011;30191;50.908;6.962;2024-01-30T00:29:52;10.38;;;8.00;;
44486;SDS011;30191;50.908;6.962;2024-01-30T00:32:18;10.05;;;7.85;;
44486;SDS011;30191;50.908;6.962;2024-01-30T00:34:44;14.20;;;8.25;;
44486;SDS011;30191;50.908;6.962;2024-01-30T00:37:10;11.48;;;8.30;;
44486;SDS011;30191;50.908;6.962;2024-01-30T00:39:35;12.32;;;8.25;;
44486;SDS011;30191;50.908;6.962;2024-01-30T00:42:01;11.23;;;8.10;;
44486;SDS011;30191;50.908;6.962;2024-01-30T00:44:27;9.32;;;7.85;;
44486;SDS011;30191;50.908;6.962;2024-01-30T00:46:52;11.27;;;7.70;;
44486;SDS011;30191;50.908;6.962;2024-01-30T00:49:18;11.68;;;8.07;;
44486;SDS011;30191;50.908;6.962;2024-01-30T00:51:44;12.07;;;8.38;;
44486;SDS011;30191;50.908;6.962;2024-01-30T00:54:09;11.88;;;7.90;;
44486;SDS011;30191;50.908;6.962;2024-01-30T00:56:35;10.68;;;7.50;;
44486;SDS011;30191;50.908;6.962;2024-01-30T00:59:01;11.75;;;7.68;;
44486;SDS011;30191;50.908;6.962;2024-01-30T01:01:26;12.80;;;7.55;;
44486;SDS011;30191;50.908;6.962;2024-01-30T01:03:52;10.48;;;7.53;;
44486;SDS011;30191;50.908;6.962;2024-01-30T01:06:17;10.13;;;7.45;;
44486;SDS011;30191;50.908;6.962;2024-01-30T01:08:43;12.50;;;7.75;;
44486;SDS011;30191;50.908;6.962;2024-01-30T01:11:09;10.98;;;7.40;;
44486;SDS011;30191;50.908;6.962;2024-01-30T01:13:34;9.50;;;7.70;;
44486;SDS011;30191;50.908;6.962;2024-01-30T01:16:00;10.88;;;7.57;;
44486;SDS011;30191;50.908;6.962;2024-01-30T01:18:26;10.40;;;7.63;;
44486;SDS011;30191;50.908;6.962;2024-01-30T01:20:52;11.98;;;8.25;;
44486;SDS011;30191;50.908;6.962;2024-01-30T01:23:17;8.95;;;7.38;;
44486;SDS011;30191;50.908;6.962;2024-01-30T01:25:43;9.43;;;7.63;;
44486;SDS011;30191;50.908;6.962;2024-01-30T01:28:09;10.68;;;7.72;;
44486;SDS011;30191;50.908;6.962;2024-01-30T01:30:35;11.82;;;7.60;;
44486;SDS011;30191;50.908;6.962;2024-01-30T01:33:00;10.65;;;7.32;;
44486;SDS011;30191;50.908;6.962;2024-01-30T01:35:27;10.35;;;7.63;;
44486;SDS011;30191;50.908;6.962;2024-01-30T01:37:53;11.82;;;7.70;;
44486;SDS011;30191;50.908;6.962;2024-01-30T01:40:24;9.95;;;7.50;;
44486;SDS011;30191;50.908;6.962;2024-01-30T01:42:51;9.95;;;7.72;;
44486;SDS011;30191;50.908;6.962;2024-01-30T01:45:18;9.82;;;7.85;;
44486;SDS011;30191;50.908;6.962;2024-01-30T01:47:45;11.30;;;7.35;;
44486;SDS011;30191;50.908;6.962;2024-01-30T01:50:15;9.83;;;7.53;;
44486;SDS011;30191;50.908;6.962;2024-01-30T01:52:46;14.00;;;7.57;;
44486;SDS011;30191;50.908;6.962;2024-01-30T01:55:13;10.57;;;7.30;;
44486;SDS011;30191;50.908;6.962;2024-01-30T01:57:39;9.73;;;7.68;;
44486;SDS011;30191;50.908;6.962;2024-01-30T02:00:06;13.75;;;7.88;;
44486;SDS011;30191;50.908;6.962;2024-01-30T02:02:35;10.43;;;7.55;;
44486;SDS011;30191;50.908;6.962;2024-01-30T02:05:02;9.23;;;7.18;;
44486;SDS011;30191;50.908;6.962;2024-01-30T02:07:28;11.82;;;7.22;;
44486;SDS011;30191;50.908;6.962;2024-01-30T02:09:54;9.90;;;7.20;;
44486;SDS011;30191;50.908;6.962;2024-01-30T02:12:20;11.90;;;7.57;;
44486;SDS011;30191;50.908;6.962;2024-01-30T02:14:46;8.10;;;6.97;;
44486;SDS011;30191;50.908;6.962;2024-01-30T02:17:13;8.40;;;6.97;;
44486;SDS011;30191;50.908;6.962;2024-01-30T02:19:39;10.32;;;7.30;;
44486;SDS011;30191;50.908;6.962;2024-01-30T02:22:05;11.93;;;7.25;;
44486;SDS011;30191;50.908;6.962;2024-01-30T02:24:31;9.35;;;7.03;;
44486;SDS011;30191;50.908;6.962;2024-01-30T02:26:56;11.73;;;7.65;;
44486;SDS011;30191;50.908;6.962;2024-01-30T02:29:22;10.90;;;6.75;;
44486;SDS011;30191;50.908;6.962;2024-01-30T02:31:48;11.88;;;7.28;;
44486;SDS011;30191;50.908;6.962;2024-01-30T02:34:13;10.32;;;6.70;;
44486;SDS011;30191;50.908;6.962;2024-01-30T02:36:42;10.20;;;7.22;;
44486;SDS011;30191;50.908;6.962;2024-01-30T02:39:08;9.43;;;7.07;;
44486;SDS011;30191;50.908;6.962;2024-01-30T02:41:34;11.75;;;7.05;;
44486;SDS011;30191;50.908;6.962;2024-01-30T02:44:00;10.68;;;6.70;;
44486;SDS011;30191;50.908;6.962;2024-01-30T02:46:27;8.52;;;6.93;;
44486;SDS011;30191;50.908;6.962;2024-01-30T02:48:52;9.95;;;6.88;;
44486;SDS011;30191;50.908;6.962;2024-01-30T02:51:18;12.93;;;6.60;;
44486;SDS011;30191;50.908;6.962;2024-01-30T02:53:44;10.20;;;7.00;;
44486;SDS011;30191;50.908;6.962;2024-01-30T02:56:09;11.27;;;7.32;;
44486;SDS011;30191;50.908;6.962;2024-01-30T02:58:35;9.27;;;6.97;;
44486;SDS011;30191;50.908;6.962;2024-01-30T03:01:02;8.32;;;6.70;;
44486;SDS011;30191;50.908;6.962;2024-01-30T03:03:28;10.73;;;7.13;;
44486;SDS011;30191;50.908;6.962;2024-01-30T03:05:53;9.73;;;6.65;;
44486;SDS011;30191;50.908;6.962;2024-01-30T03:08:19;10.27;;;6.75;;
44486;SDS011;30191;50.908;6.962;2024-01-30T03:10:45;8.82;;;7.10;;
44486;SDS011;30191;50.908;6.962;2024-01-30T03:13:10;11.52;;;7.50;;
44486;SDS011;30191;50.908;6.962;2024-01-30T03:15:36;9.98;;;7.72;;
44486;SDS011;30191;50.908;6.962;2024-01-30T03:18:02;8.60;;;6.75;;
44486;SDS011;30191;50.908;6.962;2024-01-30T03:20:29;11.45;;;7.45;;
44486;SDS011;30191;50.908;6.962;2024-01-30T03:22:55;9.85;;;6.75;;
44486;SDS011;30191;50.908;6.962;2024-01-30T03:25:21;9.95;;;7.00;;
44486;SDS011;30191;50.908;6.962;2024-01-30T03:27:46;8.90;;;6.43;;
44486;SDS011;30191;50.908;6.962;2024-01-30T03:30:12;10.15;;;6.80;;
44486;SDS011;30191;50.908;6.962;2024-01-30T03:32:38;9.85;;;7.03;;
44486;SDS011;30191;50.908;6.962;2024-01-30T03:35:03;9.75;;;6.43;;
44486;SDS011;30191;50.908;6.962;2024-01-30T03:37:29;11.40;;;6.80;;
44486;SDS011;30191;50.908;6.962;2024-01-30T03:39:55;9.52;;;7.20;;
44486;SDS011;30191;50.908;6.962;2024-01-30T03:42:21;9.65;;;6.85;;
44486;SDS011;30191;50.908;6.962;2024-01-30T03:44:47;11.45;;;6.70;;
44486;SDS011;30191;50.908;6.962;2024-01-30T03:47:13;10.32;;;6.97;;
44486;SDS011;30191;50.908;6.962;2024-01-30T03:49:39;8.77;;;6.68;;
44486;SDS011;30191;50.908;6.962;2024-01-30T03:52:05;9.55;;;6.97;;
44486;SDS011;30191;50.908;6.962;2024-01-30T03:54:30;9.80;;;7.40;;
44486;SDS011;30191;50.908;6.962;2024-01-30T03:56:56;10.45;;;6.85;;
44486;SDS011;30191;50.908;6.962;2024-01-30T03:59:22;8.25;;;6.78;;
44486;SDS011;30191;50.908;6.962;2024-01-30T04:01:50;11.45;;;7.60;;
44486;SDS011;30191;50.908;6.962;2024-01-30T04:04:17;9.20;;;6.57;;
44486;SDS011;30191;50.908;6.962;2024-01-30T04:06:43;9.23;;;6.60;;
44486;SDS011;30191;50.908;6.962;2024-01-30T04:09:09;11.00;;;6.85;;
44486;SDS011;30191;50.908;6.962;2024-01-30T04:11:35;10.68;;;6.70;;
44486;SDS011;30191;50.908;6.962;2024-01-30T04:14:00;8.40;;;6.43;;
44486;SDS011;30191;50.908;6.962;2024-01-30T04:16:26;8.90;;;6.90;;
44486;SDS011;30191;50.908;6.962;2024-01-30T04:18:51;9.02;;;6.60;;
44486;SDS011;30191;50.908;6.962;2024-01-30T04:21:17;12.10;;;7.32;;
44486;SDS011;30191;50.908;6.962;2024-01-30T04:23:43;8.75;;;6.95;;
44486;SDS011;30191;50.908;6.962;2024-01-30T04:26:09;8.85;;;6.50;;
44486;SDS011;30191;50.908;6.962;2024-01-30T04:28:34;10.45;;;6.78;;
44486;SDS011;30191;50.908;6.962;2024-01-30T04:31:00;10.05;;;6.80;;
44486;SDS011;30191;50.908;6.962;2024-01-30T04:33:25;8.25;;;6.53;;
44486;SDS011;30191;50.908;6.962;2024-01-30T04:35:51;10.75;;;6.30;;
44486;SDS011;30191;50.908;6.962;2024-01-30T04:38:17;10.80;;;6.50;;
44486;SDS011;30191;50.908;6.962;2024-01-30T04:40:42;8.43;;;6.47;;
44486;SDS011;30191;50.908;6.962;2024-01-30T04:43:08;10.68;;;6.38;;
44486;SDS011;30191;50.908;6.962;2024-01-30T04:45:34;10.55;;;6.60;;
44486;SDS011;30191;50.908;6.962;2024-01-30T04:47:59;9.55;;;6.35;;
44486;SDS011;30191;50.908;6.962;2024-01-30T04:50:25;10.02;;;6.15;;
44486;SDS011;30191;50.908;6.962;2024-01-30T04:52:51;9.70;;;6.80;;
44486;SDS011;30191;50.908;6.962;2024-01-30T04:55:17;9.02;;;6.68;;
44486;SDS011;30191;50.908;6.962;2024-01-30T04:57:43;8.07;;;6.72;;
44486;SDS011;30191;50.908;6.962;2024-01-30T05:00:10;9.73;;;6.30;;
44486;SDS011;30191;50.908;6.962;2024-01-30T05:02:36;7.03;;;6.32;;
44486;SDS011;30191;50.908;6.962;2024-01-30T05:05:02;11.18;;;7.00;;
44486;SDS011;30191;50.908;6.962;2024-01-30T05:07:28;11.30;;;6.82;;
44486;SDS011;30191;50.908;6.962;2024-01-30T05:09:53;10.07;;;6.93;;
44486;SDS011;30191;50.908;6.962;2024-01-30T05:12:19;8.65;;;6.72;;
44486;SDS011;30191;50.908;6.962;2024-01-30T05:14:45;11.60;;;6.63;;
44486;SDS011;30191;50.908;6.962;2024-01-30T05:17:10;9.30;;;6.65;;
44486;SDS011;30191;50.908;6.962;2024-01-30T05:19:37;10.02;;;7.10;;
44486;SDS011;30191;50.908;6.962;2024-01-30T05:22:03;13.05;;;7.45;;
44486;SDS011;30191;50.908;6.962;2024-01-30T05:24:29;9.18;;;6.53;;
44486;SDS011;30191;50.908;6.962;2024-01-30T05:26:55;9.80;;;6.75;;
44486;SDS011;30191;50.908;6.962;2024-01-30T05:29:20;11.07;;;6.43;;
44486;SDS011;30191;50.908;6.962;2024-01-30T05:31:46;10.02;;;6.63;;
44486;SDS011;30191;50.908;6.962;2024-01-30T05:34:12;9.27;;;6.57;;
44486;SDS011;30191;50.908;6.962;2024-01-30T05:36:37;9.25;;;6.70;;
44486;SDS011;30191;50.908;6.962;2024-01-30T05:39:03;13.02;;;6.82;;
44486;SDS011;30191;50.908;6.962;2024-01-30T05:41:29;9.52;;;6.68;;
44486;SDS011;30191;50.908;6.962;2024-01-30T05:43:54;9.73;;;7.15;;
44486;SDS011;30191;50.908;6.962;2024-01-30T05:46:20;10.23;;;6.85;;
44486;SDS011;30191;50.908;6.962;2024-01-30T05:48:46;11.35;;;7.45;;
44486;SDS011;30191;50.908;6.962;2024-01-30T05:51:12;11.40;;;6.68;;
44486;SDS011;30191;50.908;6.962;2024-01-30T05:53:38;9.80;;;6.65;;
44486;SDS011;30191;50.908;6.962;2024-01-30T05:56:04;8.13;;;6.68;;
44486;SDS011;30191;50.908;6.962;2024-01-30T05:58:30;9.45;;;7.07;;
44486;SDS011;30191;50.908;6.962;2024-01-30T06:00:56;10.95;;;7.32;;
44486;SDS011;30191;50.908;6.962;2024-01-30T06:03:22;8.68;;;6.63;;
44486;SDS011;30191;50.908;6.962;2024-01-30T06:05:48;10.05;;;6.95;;
44486;SDS011;30191;50.908;6.962;2024-01-30T06:08:14;11.23;;;6.85;;
44486;SDS011;30191;50.908;6.962;2024-01-30T06:10:39;9.77;;;7.13;;
44486;SDS011;30191;50.908;6.962;2024-01-30T06:13:05;10.50;;;7.10;;
44486;SDS011;30191;50.908;6.962;2024-01-30T06:15:31;10.02;;;6.90;;
44486;SDS011;30191;50.908;6.962;2024-01-30T06:17:58;8.93;;;6.72;;
44486;SDS011;30191;50.908;6.962;2024-01-30T06:20:24;9.10;;;7.03;;
44486;SDS011;30191;50.908;6.962;2024-01-30T06:22:49;13.43;;;6.90;;
44486;SDS011;30191;50.908;6.962;2024-01-30T06:25:15;11.98;;;6.90;;
44486;SDS011;30191;50.908;6.962;2024-01-30T06:27:41;9.77;;;6.70;;
44486;SDS011;30191;50.908;6.962;2024-01-30T06:30:07;8.05;;;6.40;;
44486;SDS011;30191;50.908;6.962;2024-01-30T06:32:35;9.25;;;6.50;;
44486;SDS011;30191;50.908;6.962;2024-01-30T06:35:01;9.43;;;6.45;;
44486;SDS011;30191;50.908;6.962;2024-01-30T06:37:27;10.02;;;7.05;;
44486;SDS011;30191;50.908;6.962;2024-01-30T06:39:52;8.32;;;6.55;;
44486;SDS011;30191;50.908;6.962;2024-01-30T06:42:18;9.05;;;7.07;;
44486;SDS011;30191;50.908;6.962;2024-01-30T06:44:44;8.63;;;6.93;;
44486;SDS011;30191;50.908;6.962;2024-01-30T06:47:10;7.72;;;6.93;;
44486;SDS011;30191;50.908;6.962;2024-01-30T06:49:36;12.30;;;7.63;;
44486;SDS011;30191;50.908;6.962;2024-01-30T06:52:06;21.85;;;8.32;;
44486;SDS011;30191;50.908;6.962;2024-01-30T06:54:33;15.07;;;7.50;;
44486;SDS011;30191;50.908;6.962;2024-01-30T06:56:59;9.00;;;7.57;;
44486;SDS011;30191;50.908;6.962;2024-01-30T06:59:25;11.38;;;7.57;;
44486;SDS011;30191;50.908;6.962;2024-01-30T07:01:50;10.18;;;7.45;;
44486;SDS011;30191;50.908;6.962;2024-01-30T07:04:16;15.35;;;8.40;;
44486;SDS011;30191;50.908;6.962;2024-01-30T07:06:43;12.98;;;8.07;;
44486;SDS011;30191;50.908;6.962;2024-01-30T07:09:09;14.20;;;8.65;;
44486;SDS011;30191;50.908;6.962;2024-01-30T07:11:34;18.55;;;10.10;;
44486;SDS011;30191;50.908;6.962;2024-01-30T07:14:00;13.85;;;8.02;;
44486;SDS011;30191;50.908;6.962;2024-01-30T07:16:28;11.68;;;7.85;;
44486;SDS011;30191;50.908;6.962;2024-01-30T07:18:54;12.50;;;8.30;;
44486;SDS011;30191;50.908;6.962;2024-01-30T07:21:21;13.45;;;9.05;;
44486;SDS011;30191;50.908;6.962;2024-01-30T07:23:50;14.32;;;10.18;;
44486;SDS011;30191;50.908;6.962;2024-01-30T07:26:15;13.60;;;9.10;;
44486;SDS011;30191;50.908;6.962;2024-01-30T07:28:41;15.00;;;9.50;;
44486;SDS011;30191;50.908;6.962;2024-01-30T07:31:07;12.95;;;9.50;;
44486;SDS011;30191;50.908;6.962;2024-01-30T07:33:33;13.65;;;8.25;;
44486;SDS011;30191;50.908;6.962;2024-01-30T07:35:59;16.90;;;9.80;;
44486;SDS011;30191;50.908;6.962;2024-01-30T07:38:24;15.15;;;7.43;;
44486;SDS011;30191;50.908;6.962;2024-01-30T07:40:50;9.88;;;7.63;;
44486;SDS011;30191;50.908;6.962;2024-01-30T07:43:16;13.30;;;8.73;;
44486;SDS011;30191;50.908;6.962;2024-01-30T07:45:41;16.88;;;8.45;;
44486;SDS011;30191;50.908;6.962;2024-01-30T07:48:07;15.52;;;8.80;;
44486;SDS011;30191;50.908;6.962;2024-01-30T07:50:33;14.63;;;8.60;;
44486;SDS011;30191;50.908;6.962;2024-01-30T07:52:59;15.68;;;8.68;;
44486;SDS011;30191;50.908;6.962;2024-01-30T07:55:25;14.40;;;9.23;;
44486;SDS011;30191;50.908;6.962;2024-01-30T08:01:29;12.95;;;7.93;;
44486;SDS011;30191;50.908;6.962;2024-01-30T08:03:54;14.57;;;8.90;;
44486;SDS011;30191;50.908;6.962;2024-01-30T08:06:20;10.73;;;7.38;;
44486;SDS011;30191;50.908;6.962;2024-01-30T08:08:46;11.32;;;7.13;;
44486;SDS011;30191;50.908;6.962;2024-01-30T08:11:11;13.50;;;8.15;;
44486;SDS011;30191;50.908;6.962;2024-01-30T08:13:37;20.63;;;9.55;;
44486;SDS011;30191;50.908;6.962;2024-01-30T08:16:03;13.13;;;8.48;;
44486;SDS011;30191;50.908;6.962;2024-01-30T08:18:29;15.57;;;8.27;;
44486;SDS011;30191;50.908;6.962;2024-01-30T08:20:55;12.38;;;8.10;;
44486;SDS011;30191;50.908;6.962;2024-01-30T08:23:20;9.82;;;6.63;;
44486;SDS011;30191;50.908;6.962;2024-01-30T08:25:46;22.60;;;10.43;;
44486;SDS011;30191;50.908;6.962;2024-01-30T08:28:11;14.23;;;7.95;;
44486;SDS011;30191;50.908;6.962;2024-01-30T08:30:37;10.85;;;7.25;;
44486;SDS011;30191;50.908;6.962;2024-01-30T08:33:04;10.07;;;7.22;;
44486;SDS011;30191;50.908;6.962;2024-01-30T08:35:30;10.55;;;7.18;;
44486;SDS011;30191;50.908;6.962;2024-01-30T08:37:58;13.02;;;7.07;;
44486;SDS011;30191;50.908;6.962;2024-01-30T08:40:24;12.20;;;6.93;;
44486;SDS011;30191;50.908;6.962;2024-01-30T08:42:50;13.15;;;7.40;;
44486;SDS011;30191;50.908;6.962;2024-01-30T08:45:15;13.07;;;7.72;;
44486;SDS011;30191;50.908;6.962;2024-01-30T08:47:41;9.50;;;7.05;;
44486;SDS011;30191;50.908;6.962;2024-01-30T08:50:07;11.25;;;7.80;;
44486;SDS011;30191;50.908;6.962;2024-01-30T08:52:33;10.25;;;6.85;;
44486;SDS011;30191;50.908;6.962;2024-01-30T08:54:59;14.98;;;7.80;;
44486;SDS011;30191;50.908;6.962;2024-01-30T08:57:25;12.45;;;7.20;;
44486;SDS011;30191;50.908;6.962;2024-01-30T08:59:53;11.85;;;7.22;;
44486;SDS011;30191;50.908;6.962;2024-01-30T09:02:19;15.02;;;7.60;;
44486;SDS011;30191;50.908;6.962;2024-01-30T09:04:45;10.45;;;6.72;;
44486;SDS011;30191;50.908;6.962;2024-01-30T09:07:11;12.48;;;7.68;;
44486;SDS011;30191;50.908;6.962;2024-01-30T09:09:38;11.65;;;7.43;;
44486;SDS011;30191;50.908;6.962;2024-01-30T09:12:06;13.88;;;7.43;;
44486;SDS011;30191;50.908;6.962;2024-01-30T09:14:34;13.13;;;7.25;;
44486;SDS011;30191;50.908;6.962;2024-01-30T09:17:00;10.30;;;7.18;;
44486;SDS011;30191;50.908;6.962;2024-01-30T09:19:28;12.63;;;6.95;;
44486;SDS011;30191;50.908;6.962;2024-01-30T09:21:53;12.13;;;8.02;;
44486;SDS011;30191;50.908;6.962;2024-01-30T09:24:19;17.63;;;7.60;;
44486;SDS011;30191;50.908;6.962;2024-01-30T09:26:45;10.32;;;7.38;;
44486;SDS011;30191;50.908;6.962;2024-01-30T09:29:10;13.52;;;8.10;;
44486;SDS011;30191;50.908;6.962;2024-01-30T09:31:36;11.18;;;8.05;;
44486;SDS011;30191;50.908;6.962;2024-01-30T09:34:01;15.98;;;7.88;;
44486;SDS011;30191;50.908;6.962;2024-01-30T09:36:27;16.27;;;8.80;;
44486;SDS011;30191;50.908;6.962;2024-01-30T09:38:53;22.98;;;8.40;;
44486;SDS011;30191;50.908;6.962;2024-01-30T09:41:18;15.63;;;8.98;;
44486;SDS011;30191;50.908;6.962;2024-01-30T09:43:47;10.98;;;7.25;;
44486;SDS011;30191;50.908;6.962;2024-01-30T09:46:16;15.73;;;9.00;;
44486;SDS011;30191;50.908;6.962;2024-01-30T09:48:43;17.90;;;8.82;;
44486;SDS011;30191;50.908;6.962;2024-01-30T09:51:11;13.18;;;7.53;;
44486;SDS011;30191;50.908;6.962;2024-01-30T09:53:40;14.50;;;9.30;;
44486;SDS011;30191;50.908;6.962;2024-01-30T09:56:08;13.82;;;7.25;;
44486;SDS011;30191;50.908;6.962;2024-01-30T09:58:34;14.52;;;8.02;;
44486;SDS011;30191;50.908;6.962;2024-01-30T10:00:59;13.38;;;7.68;;
44486;SDS011;30191;50.908;6.962;2024-01-30T10:03:25;13.00;;;8.75;;
44486;SDS011;30191;50.908;6.962;2024-01-30T10:05:52;14.25;;;7.85;;
44486;SDS011;30191;50.908;6.962;2024-01-30T10:08:18;12.35;;;7.85;;
44486;SDS011;30191;50.908;6.962;2024-01-30T10:10:47;11.82;;;7.38;;
44486;SDS011;30191;50.908;6.962;2024-01-30T10:13:15;8.85;;;7.85;;
44486;SDS011;30191;50.908;6.962;2024-01-30T10:15:41;12.25;;;7.68;;
44486;SDS011;30191;50.908;6.962;2024-01-30T10:18:07;11.15;;;7.68;;
44486;SDS011;30191;50.908;6.962;2024-01-30T10:20:35;11.73;;;7.43;;
44486;SDS011;30191;50.908;6.962;2024-01-30T10:23:01;17.33;;;10.20;;
44486;SDS011;30191;50.908;6.962;2024-01-30T10:25:27;14.25;;;7.97;;
44486;SDS011;30191;50.908;6.962;2024-01-30T10:27:53;14.05;;;7.05;;
44486;SDS011;30191;50.908;6.962;2024-01-30T10:30:20;17.58;;;8.25;;
44486;SDS011;30191;50.908;6.962;2024-01-30T10:32:49;16.15;;;8.05;;
44486;SDS011;30191;50.908;6.962;2024-01-30T10:35:15;9.52;;;7.30;;
44486;SDS011;30191;50.908;6.962;2024-01-30T10:37:44;14.52;;;7.43;;
44486;SDS011;30191;50.908;6.962;2024-01-30T10:40:13;14.55;;;7.15;;
44486;SDS011;30191;50.908;6.962;2024-01-30T10:42:42;21.27;;;8.43;;
44486;SDS011;30191;50.908;6.962;2024-01-30T10:45:10;14.68;;;7.45;;
44486;SDS011;30191;50.908;6.962;2024-01-30T10:47:53;10.40;;;7.22;;
44486;SDS011;30191;50.908;6.962;2024-01-30T10:50:23;12.68;;;7.80;;
44486;SDS011;30191;50.908;6.962;2024-01-30T10:52:49;9.82;;;7.68;;
44486;SDS011;30191;50.908;6.962;2024-01-30T10:55:16;10.52;;;7.70;;
44486;SDS011;30191;50.908;6.962;2024-01-30T10:57:43;11.02;;;7.32;;
44486;SDS011;30191;50.908;6.962;2024-01-30T11:00:10;13.60;;;7.43;;
44486;SDS011;30191;50.908;6.962;2024-01-30T11:02:38;11.25;;;6.65;;
44486;SDS011;30191;50.908;6.962;2024-01-30T11:05:05;12.10;;;6.97;;
44486;SDS011;30191;50.908;6.962;2024-01-30T11:07:31;11.32;;;7.30;;
44486;SDS011;30191;50.908;6.962;2024-01-30T11:12:23;8.38;;;6.63;;
44486;SDS011;30191;50.908;6.962;2024-01-30T11:14:50;14.90;;;7.82;;
44486;SDS011;30191;50.908;6.962;2024-01-30T11:17:53;12.20;;;7.53;;
44486;SDS011;30191;50.908;6.962;2024-01-30T11:20:28;14.25;;;7.28;;
44486;SDS011;30191;50.908;6.962;2024-01-30T11:23:01;13.70;;;7.70;;
44486;SDS011;30191;50.908;6.962;2024-01-30T11:25:31;11.87;;;7.43;;
44486;SDS011;30191;50.908;6.962;2024-01-30T11:27:57;10.93;;;6.93;;
44486;SDS011;30191;50.908;6.962;2024-01-30T11:30:27;11.48;;;7.25;;
44486;SDS011;30191;50.908;6.962;2024-01-30T11:35:25;11.10;;;7.40;;
44486;SDS011;30191;50.908;6.962;2024-01-30T11:37:51;14.27;;;7.93;;
44486;SDS011;30191;50.908;6.962;2024-01-30T11:40:16;21.27;;;9.65;;
44486;SDS011;30191;50.908;6.962;2024-01-30T11:42:42;12.77;;;8.15;;
44486;SDS011;30191;50.908;6.962;2024-01-30T11:45:09;13.13;;;7.93;;
44486;SDS011;30191;50.908;6.962;2024-01-30T11:47:36;10.60;;;6.75;;
44486;SDS011;30191;50.908;6.962;2024-01-30T11:50:03;17.25;;;9.75;;
44486;SDS011;30191;50.908;6.962;2024-01-30T11:52:31;18.60;;;9.10;;
44486;SDS011;30191;50.908;6.962;2024-01-30T11:55:00;12.68;;;7.35;;
44486;SDS011;30191;50.908;6.962;2024-01-30T11:57:28;13.93;;;8.02;;
44486;SDS011;30191;50.908;6.962;2024-01-30T11:59:54;11.27;;;7.15;;
44486;SDS011;30191;50.908;6.962;2024-01-30T12:02:19;12.88;;;7.47;;
44486;SDS011;30191;50.908;6.962;2024-01-30T12:04:45;11.35;;;7.18;;
44486;SDS011;30191;50.908;6.962;2024-01-30T12:07:11;12.85;;;7.65;;
44486;SDS011;30191;50.908;6.962;2024-01-30T12:09:40;9.63;;;6.50;;
44486;SDS011;30191;50.908;6.962;2024-01-30T12:12:07;12.77;;;7.00;;
44486;SDS011;30191;50.908;6.962;2024-01-30T12:14:37;10.73;;;6.43;;
44486;SDS011;30191;50.908;6.962;2024-01-30T12:17:05;13.55;;;6.88;;
44486;SDS011;30191;50.908;6.962;2024-01-30T12:19:33;14.25;;;7.57;;
44486;SDS011;30191;50.908;6.962;2024-01-30T12:21:59;8.57;;;6.40;;
44486;SDS011;30191;50.908;6.962;2024-01-30T12:24:27;10.50;;;6.05;;
44486;SDS011;30191;50.908;6.962;2024-01-30T12:26:57;14.65;;;7.07;;
44486;SDS011;30191;50.908;6.962;2024-01-30T12:29:23;13.65;;;7.05;;
44486;SDS011;30191;50.908;6.962;2024-01-30T12:31:52;15.85;;;6.80;;
44486;SDS011;30191;50.908;6.962;2024-01-30T12:34:18;10.25;;;6.22;;
44486;SDS011;30191;50.908;6.962;2024-01-30T12:36:46;13.23;;;6.68;;
44486;SDS011;30191;50.908;6.962;2024-01-30T12:39:12;11.90;;;6.53;;
44486;SDS011;30191;50.908;6.962;2024-01-30T12:41:39;11.57;;;6.65;;
44486;SDS011;30191;50.908;6.962;2024-01-30T12:44:05;10.85;;;7.15;;
44486;SDS011;30191;50.908;6.962;2024-01-30T12:46:31;13.35;;;6.60;;
44486;SDS011;30191;50.908;6.962;2024-01-30T12:48:59;9.82;;;5.95;;
44486;SDS011;30191;50.908;6.962;2024-01-30T12:51:25;11.15;;;6.20;;
44486;SDS011;30191;50.908;6.962;2024-01-30T12:53:50;10.65;;;6.80;;
44486;SDS011;30191;50.908;6.962;2024-01-30T12:56:16;10.60;;;6.07;;
44486;SDS011;30191;50.908;6.962;2024-01-30T12:58:42;11.32;;;6.10;;
44486;SDS011;30191;50.908;6.962;2024-01-30T13:01:08;14.50;;;6.43;;
44486;SDS011;30191;50.908;6.962;2024-01-30T13:03:34;14.85;;;6.70;;
44486;SDS011;30191;50.908;6.962;2024-01-30T13:06:00;10.70;;;7.35;;
44486;SDS011;30191;50.908;6.962;2024-01-30T13:08:25;10.85;;;7.05;;
44486;SDS011;30191;50.908;6.962;2024-01-30T13:10:51;11.40;;;6.60;;
44486;SDS011;30191;50.908;6.962;2024-01-30T13:13:17;10.95;;;6.75;;
44486;SDS011;30191;50.908;6.962;2024-01-30T13:15:42;12.68;;;6.40;;
44486;SDS011;30191;50.908;6.962;2024-01-30T13:18:08;7.75;;;5.57;;
44486;SDS011;30191;50.908;6.962;2024-01-30T13:20:33;11.73;;;6.90;;
44486;SDS011;30191;50.908;6.962;2024-01-30T13:22:59;10.05;;;5.88;;
44486;SDS011;30191;50.908;6.962;2024-01-30T13:25:25;10.10;;;5.88;;
44486;SDS011;30191;50.908;6.962;2024-01-30T13:27:51;12.88;;;6.55;;
44486;SDS011;30191;50.908;6.962;2024-01-30T13:30:16;11.93;;;6.10;;
44486;SDS011;30191;50.908;6.962;2024-01-30T13:32:42;10.82;;;6.40;;
44486;SDS011;30191;50.908;6.962;2024-01-30T13:35:09;9.20;;;6.20;;
44486;SDS011;30191;50.908;6.962;2024-01-30T13:37:35;10.20;;;5.97;;
44486;SDS011;30191;50.908;6.962;2024-01-30T13:40:02;10.15;;;6.28;;
44486;SDS011;30191;50.908;6.962;2024-01-30T13:42:31;10.15;;;5.97;;
44486;SDS011;30191;50.908;6.962;2024-01-30T13:44:57;9.88;;;6.38;;
44486;SDS011;30191;50.908;6.962;2024-01-30T13:47:23;9.65;;;6.18;;
44486;SDS011;30191;50.908;6.962;2024-01-30T13:49:49;10.68;;;6.25;;
44486;SDS011;30191;50.908;6.962;2024-01-30T13:52:14;12.73;;;6.55;;
44486;SDS011;30191;50.908;6.962;2024-01-30T13:54:40;13.43;;;5.93;;
44486;SDS011;30191;50.908;6.962;2024-01-30T13:57:06;17.92;;;6.72;;
44486;SDS011;30191;50.908;6.962;2024-01-30T13:59:33;19.00;;;6.30;;
44486;SDS011;30191;50.908;6.962;2024-01-30T14:01:59;12.10;;;6.43;;
44486;SDS011;30191;50.908;6.962;2024-01-30T14:04:24;13.52;;;6.63;;
44486;SDS011;30191;50.908;6.962;2024-01-30T14:06:50;14.10;;;5.97;;
44486;SDS011;30191;50.908;6.962;2024-01-30T14:09:16;10.27;;;5.57;;
44486;SDS011;30191;50.908;6.962;2024-01-30T14:11:41;10.90;;;6.40;;
44486;SDS011;30191;50.908;6.962;2024-01-30T14:14:07;8.45;;;5.80;;
44486;SDS011;30191;50.908;6.962;2024-01-30T14:16:34;11.32;;;5.40;;
44486;SDS011;30191;50.908;6.962;2024-01-30T14:19:00;9.75;;;4.75;;
44486;SDS011;30191;50.908;6.962;2024-01-30T14:21:25;8.13;;;5.32;;
44486;SDS011;30191;50.908;6.962;2024-01-30T14:23:51;13.65;;;5.32;;
44486;SDS011;30191;50.908;6.962;2024-01-30T14:26:17;9.77;;;5.13;;
44486;SDS011;30191;50.908;6.962;2024-01-30T14:28:43;15.30;;;6.00;;
44486;SDS011;30191;50.908;6.962;2024-01-30T14:31:10;9.93;;;5.63;;
44486;SDS011;30191;50.908;6.962;2024-01-30T14:33:36;10.75;;;5.80;;
44486;SDS011;30191;50.908;6.962;2024-01-30T14:36:02;13.32;;;5.97;;
44486;SDS011;30191;50.908;6.962;2024-01-30T14:38:28;8.40;;;5.70;;
44486;SDS011;30191;50.908;6.962;2024-01-30T14:40:54;11.07;;;5.75;;